Impacts METAR Board
IDs:

KCLE - Cleveland/Hopkins In, OH, US

Updated at: 1500 UTC 20 Nov 2018
Potential Impact None Slight Moderate High
Time 20/03Z 20/04Z 20/05Z 20/06Z 20/07Z 20/08Z 20/09Z 20/10Z 20/11Z 20/12Z 20/13Z 20/14Z 20/15Z
Temp39 38 37 37 36 36 36 35 34 33 33 33 34
Dewpt34 33 32 32 32 32 32 32 32 31 31 32 32
Altim30.01 30.01 30.01 30.00 30.00 30.01 30.00 30.01 30.02 30.04 30.05 30.07 30.10
VIS10 10 10 10 8 7 7 2.5 1.75 3 2 1.25 3
CIG30 26 30 31 90 28 23 10 8 8 8 5 9
CoverOVCOVCOVCOVCOVCOVCOVCOVCOVCOVCOVCOVCOVC
FltCatMVFRMVFRMVFRVFRVFRMVFRMVFRIFRIFRIFRIFRIFRIFR
WX-------------SN-SN BR-SN BR-SN BR-SN BR-SN BR-SN BR
WDir300290270250250240240240250240250260320
WSpd7 7 7 5 8 7 6 8 8 9 9 8 11
WGst-- -- -- -- -- -- -- -- -- -- -- -- --
Raw hourly METARs
KCLE 200251Z 30007KT 10SM BKN030 OVC130 04/01 A3001 RMK AO2 SLP168 T00390011 53004
KCLE 200351Z 29007KT 10SM SCT014 OVC026 03/01 A3001 RMK AO2 SLP167 T00330006
KCLE 200451Z 27007KT 10SM FEW023 OVC030 03/00 A3001 RMK AO2 SLP168 T00280000 400440022
KCLE 200551Z 25005KT 10SM OVC031 03/00 A3000 RMK AO2 SLP165 T00280000 10039 20028 58002
KCLE 200651Z 25008KT 8SM SCT030 OVC090 02/00 A3000 RMK AO2 SLP165 T00220000
KCLE 200759Z 24007KT 7SM BKN028 OVC080 02/00 A3001 RMK AO2 T00220000
KCLE 200851Z 24006KT 7SM -SN OVC023 02/00 A3000 RMK AO2 SNB44 SLP165 P0000 60000 T00220000 58000
KCLE 201000Z 24008KT 2 1/2SM -SN BR BKN010 OVC020 02/00 A3001 RMK AO2 P0000 T00170000
KCLE 201056Z 25008KT 1 3/4SM -SN BR BKN008 OVC014 01/00 A3002 RMK AO2 P0001 T00110000
KCLE 201151Z 24009KT 3SM -SN BR OVC008 01/M01 A3004 RMK AO2 SLP178 P0001 60002 70002 T00061006 10028 20006 53012
KCLE 201251Z 25009KT 2SM -SN BR BKN008 OVC015 01/M01 A3005 RMK AO2 SLP182 P0001 T00061006
KCLE 201351Z 26008KT 1 1/4SM -SN BR BKN005 OVC009 01/00 A3007 RMK AO2 SLP190 P0002 T00060000
KCLE 201501Z 32011KT 3SM -SN BR SCT006 BKN009 OVC015 01/00 A3010 RMK AO2 P0001 T00110000



Page loaded:  15:52 UTC  |   07:52 AM Pacific  |   08:52 AM Mountain  |   09:52 AM Central  |   10:52 AM Eastern

 

ADVISORIES

FORECASTS

FORECASTS

OBSERVATIONS

USER TOOLS

ABOUT US